EKBI/BLL METAR and TAF weather

Enter ICAO airport designator
Station Type Date Time Source
EKBI METAR 2020/07/06 19:20 UTC NOAA

EKBI 061920Z 28017KT 9999 -SHRA FEW034CB BKN052 12/08 Q1010


Station Type Date Time Source
EKBI Decoded METAR 2020/07/06 19:20 UTC NOAA

Billund Lufthavn, Denmark (EKBI) 55-44N 009-10E 79M
Jul 06, 2020 - 03:20 PM EDT / 2020.07.06 1920 UTC
Wind: from the W (280 degrees) at 20 MPH (17 KT):0
Visibility: greater than 7 mile(s):0
Sky conditions: mostly cloudy
Weather: light rain showers; Cumulonimbus clouds observed
Temperature: 53 F (12 C)
Dew Point: 46 F (8 C)
Relative Humidity: 76%
Pressure (altimeter): 29.83 in. Hg (1010 hPa)
ob: EKBI 061920Z 28017KT 9999 -SHRA FEW034CB BKN052 12/08 Q1010
cycle: 19

Station Type Date Time Source
EKBI TAF 2020/07/06 18:08 UTC NOAA

TAF EKBI 061702Z 0618/0718 27020KT 9999 SCT030
TEMPO 0618/0620 29022G32KT FEW020TCU
TEMPO 0707/0715 25015G25KT 4000 SHRA SCT020CB
TEMPO 0715/0718 FEW020CB

Example: see airport list